TimeCDT,TemperatureF,Dew PointF,Humidity,Sea Level PressureIn,VisibilityMPH,Wind Direction,Wind SpeedMPH,Gust SpeedMPH,PrecipitationIn,Events,Conditions,WindDirDegrees,DateUTC
12:15 AM,73.9,68.5,83,30.08,10.0,SSE,3.5,-,N/A,,Clear,150,2013-07-08 05:15:00
12:35 AM,74.3,68.5,82,30.08,10.0,South,4.6,-,N/A,,Clear,170,2013-07-08 05:35:00
12:55 AM,73.8,68.4,83,30.08,10.0,South,4.6,-,N/A,,Clear,180,2013-07-08 05:55:00
1:15 AM,73.6,68.4,84,30.08,10.0,South,4.6,-,N/A,,Clear,170,2013-07-08 06:15:00
1:35 AM,72.7,68.9,88,30.08,10.0,South,3.5,-,N/A,,Clear,170,2013-07-08 06:35:00
1:55 AM,72.9,68.9,87,30.08,10.0,SSE,3.5,-,N/A,,Clear,160,2013-07-08 06:55:00
2:15 AM,72.7,68.9,88,30.08,10.0,South,3.5,-,N/A,,Scattered Clouds,180,2013-07-08 07:15:00
2:35 AM,72.5,68.9,88,30.07,10.0,SSE,3.5,-,N/A,,Scattered Clouds,160,2013-07-08 07:35:00
2:55 AM,72.1,68.5,88,30.07,10.0,SSE,3.5,-,N/A,,Clear,160,2013-07-08 07:55:00
3:15 AM,71.6,68.5,90,30.06,10.0,SSE,3.5,-,N/A,,Clear,160,2013-07-08 08:15:00
3:35 AM,71.6,68.4,89,30.06,10.0,South,3.5,-,N/A,,Clear,170,2013-07-08 08:35:00
3:55 AM,71.8,68.2,88,30.06,10.0,South,4.6,-,N/A,,Clear,180,2013-07-08 08:55:00
4:15 AM,71.6,68.0,88,30.06,10.0,Calm,Calm,-,N/A,,Clear,0,2013-07-08 09:15:00
4:35 AM,70.9,68.0,91,30.07,10.0,Calm,Calm,-,N/A,,Clear,0,2013-07-08 09:35:00
4:55 AM,70.9,68.0,91,30.07,10.0,Calm,Calm,-,N/A,,Clear,0,2013-07-08 09:55:00
5:15 AM,69.4,67.3,93,30.08,7.0,Calm,Calm,-,N/A,,Clear,0,2013-07-08 10:15:00
5:55 AM,68.9,67.1,94,30.09,7.0,SSE,3.5,-,N/A,,Clear,150,2013-07-08 10:55:00
6:15 AM,69.8,68.0,94,30.09,5.0,Calm,Calm,-,N/A,,Clear,0,2013-07-08 11:15:00
6:35 AM,71.1,68.2,91,30.09,10.0,SSE,3.5,-,N/A,,Clear,160,2013-07-08 11:35:00
6:55 AM,72.5,68.4,87,30.09,10.0,South,3.5,-,N/A,,Clear,180,2013-07-08 11:55:00
7:15 AM,73.4,68.5,85,30.09,10.0,SSW,4.6,-,N/A,,Clear,200,2013-07-08 12:15:00
7:35 AM,74.5,68.2,81,30.10,10.0,SSW,3.5,-,N/A,,Clear,200,2013-07-08 12:35:00
7:55 AM,75.6,68.5,79,30.10,10.0,South,4.6,-,N/A,,Clear,190,2013-07-08 12:55:00
8:15 AM,77.5,69.3,76,30.11,10.0,SSW,4.6,-,N/A,,Clear,210,2013-07-08 13:15:00
8:35 AM,79.5,70.0,72,30.12,10.0,SW,6.9,-,N/A,,Scattered Clouds,220,2013-07-08 13:35:00
8:55 AM,79.2,69.6,72,30.12,10.0,WSW,5.8,-,N/A,,Scattered Clouds,240,2013-07-08 13:55:00
9:15 AM,79.7,70.0,72,30.12,10.0,SW,8.1,-,N/A,,Clear,220,2013-07-08 14:15:00
9:35 AM,80.8,70.9,72,30.12,10.0,SW,5.8,-,N/A,,Clear,230,2013-07-08 14:35:00
9:55 AM,81.9,71.1,70,30.13,10.0,SW,8.1,-,N/A,,Clear,230,2013-07-08 14:55:00
10:15 AM,82.8,70.2,66,30.13,10.0,SW,11.5,-,N/A,,Clear,230,2013-07-08 15:15:00
10:35 AM,83.5,70.7,65,30.13,10.0,SW,9.2,-,N/A,,Clear,230,2013-07-08 15:35:00
10:55 AM,84.2,70.2,63,30.13,10.0,WSW,13.8,17.3,N/A,,Clear,240,2013-07-08 15:55:00
11:15 AM,84.4,70.3,63,30.13,10.0,SW,10.4,-,N/A,,Scattered Clouds,220,2013-07-08 16:15:00
11:35 AM,85.5,71.6,63,30.13,10.0,SW,9.2,-,N/A,,Clear,230,2013-07-08 16:35:00
11:55 AM,85.1,70.7,62,30.13,10.0,WSW,9.2,-,N/A,,Clear,240,2013-07-08 16:55:00
12:15 PM,84.7,71.2,64,30.13,10.0,SW,6.9,-,N/A,,Clear,220,2013-07-08 17:15:00
12:35 PM,85.3,71.4,63,30.12,10.0,SSW,6.9,-,N/A,,Clear,200,2013-07-08 17:35:00
12:55 PM,85.5,70.2,60,30.11,10.0,SW,10.4,-,N/A,,Clear,220,2013-07-08 17:55:00
1:15 PM,84.7,71.4,64,30.10,10.0,SW,5.8,-,N/A,,Clear,220,2013-07-08 18:15:00
1:35 PM,84.2,71.6,66,30.09,10.0,South,8.1,-,N/A,Rain,Rain,190,2013-07-08 18:35:00
1:55 PM,84.9,72.3,66,30.08,10.0,South,4.6,-,N/A,Rain,Rain,180,2013-07-08 18:55:00
2:15 PM,84.4,71.8,66,30.08,10.0,SSW,5.8,-,N/A,Rain,Rain,200,2013-07-08 19:15:00
2:35 PM,84.2,72.5,68,30.08,10.0,South,5.8,-,N/A,Rain,Rain,190,2013-07-08 19:35:00
2:55 PM,84.4,73.0,69,30.07,10.0,SSW,5.8,-,N/A,Rain,Rain,210,2013-07-08 19:55:00
3:15 PM,84.2,73.0,69,30.07,10.0,SSW,4.6,-,N/A,Rain,Rain,200,2013-07-08 20:15:00
3:35 PM,83.7,73.0,70,30.07,10.0,SSW,5.8,-,N/A,Rain,Rain,200,2013-07-08 20:35:00
3:55 PM,83.3,73.6,72,30.06,10.0,South,5.8,-,N/A,Rain,Rain,180,2013-07-08 20:55:00
4:15 PM,84.2,72.9,69,30.06,10.0,Calm,Calm,-,N/A,Rain,Rain,0,2013-07-08 21:15:00
4:35 PM,84.7,73.6,69,30.05,10.0,South,4.6,-,N/A,Rain,Rain,180,2013-07-08 21:35:00
4:55 PM,85.1,73.8,69,30.05,10.0,South,4.6,-,N/A,Rain,Light Rain,180,2013-07-08 21:55:00
5:15 PM,85.1,72.7,66,30.05,10.0,SSW,5.8,-,N/A,,Clear,200,2013-07-08 22:15:00
5:35 PM,86.0,72.3,64,30.04,10.0,SSW,4.6,-,N/A,,Clear,210,2013-07-08 22:35:00
5:55 PM,85.8,72.5,64,30.04,10.0,South,5.8,-,N/A,,Clear,190,2013-07-08 22:55:00
6:15 PM,85.1,72.7,66,30.04,10.0,SSW,6.9,-,N/A,,Clear,200,2013-07-08 23:15:00
6:35 PM,84.2,72.5,68,30.04,7.0,South,4.6,-,N/A,,Clear,190,2013-07-08 23:35:00
6:55 PM,83.3,72.3,69,30.04,10.0,South,4.6,-,N/A,,Clear,190,2013-07-08 23:55:00
7:15 PM,82.4,70.9,68,30.04,10.0,South,4.6,-,N/A,,Clear,180,2013-07-09 00:15:00
7:35 PM,81.7,70.7,69,30.04,10.0,South,3.5,-,N/A,,Clear,190,2013-07-09 00:35:00
7:55 PM,81.5,70.7,70,30.04,7.0,South,5.8,-,N/A,,Clear,180,2013-07-09 00:55:00
8:15 PM,80.8,70.3,70,30.04,10.0,South,4.6,-,N/A,,Clear,180,2013-07-09 01:15:00
8:35 PM,80.8,70.0,70,30.04,10.0,South,5.8,-,N/A,,Clear,180,2013-07-09 01:35:00
8:55 PM,80.2,69.4,69,30.05,10.0,South,4.6,-,N/A,,Clear,180,2013-07-09 01:55:00
9:15 PM,79.7,69.1,70,30.05,10.0,South,3.5,-,N/A,,Clear,180,2013-07-09 02:15:00
9:35 PM,79.7,68.9,69,30.06,10.0,South,4.6,-,N/A,,Clear,170,2013-07-09 02:35:00
9:55 PM,78.6,69.1,72,30.06,10.0,SSE,3.5,-,N/A,,Clear,150,2013-07-09 02:55:00
10:15 PM,76.5,70.0,80,30.06,10.0,SE,3.5,-,N/A,,Clear,140,2013-07-09 03:15:00
10:35 PM,77.4,69.8,77,30.07,10.0,South,3.5,-,N/A,,Clear,170,2013-07-09 03:35:00
10:55 PM,76.8,69.8,79,30.07,10.0,SSE,3.5,-,N/A,,Clear,160,2013-07-09 03:55:00
11:15 PM,76.1,70.2,82,30.07,10.0,SSE,3.5,-,N/A,,Scattered Clouds,160,2013-07-09 04:15:00
11:35 PM,76.3,70.3,82,30.07,10.0,SSE,3.5,-,N/A,,Overcast,160,2013-07-09 04:35:00
11:55 PM,76.8,70.3,80,30.07,10.0,SSE,3.5,-,N/A,,Overcast,150,2013-07-09 04:55:00